sensor_id;sensor_type;location;lat;lon;timestamp;temperature;humidity
9271;DHT22;4673;53.458;9.940;2024-02-26T00:00:35;2.30;72.50
9271;DHT22;4673;53.458;9.940;2024-02-26T00:03:01;2.20;72.50
9271;DHT22;4673;53.458;9.940;2024-02-26T00:05:27;2.20;72.60
9271;DHT22;4673;53.458;9.940;2024-02-26T00:07:52;2.20;72.70
9271;DHT22;4673;53.458;9.940;2024-02-26T00:10:18;2.10;72.70
9271;DHT22;4673;53.458;9.940;2024-02-26T00:12:43;2.10;72.90
9271;DHT22;4673;53.458;9.940;2024-02-26T00:15:10;2.10;72.90
9271;DHT22;4673;53.458;9.940;2024-02-26T00:17:36;2.00;72.90
9271;DHT22;4673;53.458;9.940;2024-02-26T00:20:05;2.00;73.00
9271;DHT22;4673;53.458;9.940;2024-02-26T00:22:34;2.00;73.00
9271;DHT22;4673;53.458;9.940;2024-02-26T00:25:00;2.00;73.20
9271;DHT22;4673;53.458;9.940;2024-02-26T00:27:25;2.00;73.20
9271;DHT22;4673;53.458;9.940;2024-02-26T00:29:51;2.00;73.20
9271;DHT22;4673;53.458;9.940;2024-02-26T00:32:17;1.90;73.20
9271;DHT22;4673;53.458;9.940;2024-02-26T00:34:42;1.80;73.10
9271;DHT22;4673;53.458;9.940;2024-02-26T00:37:08;1.80;73.10
9271;DHT22;4673;53.458;9.940;2024-02-26T00:39:34;1.70;73.20
9271;DHT22;4673;53.458;9.940;2024-02-26T00:41:59;1.70;73.20
9271;DHT22;4673;53.458;9.940;2024-02-26T00:44:25;1.60;73.10
9271;DHT22;4673;53.458;9.940;2024-02-26T00:46:50;1.60;73.10
9271;DHT22;4673;53.458;9.940;2024-02-26T00:49:16;1.60;73.20
9271;DHT22;4673;53.458;9.940;2024-02-26T00:51:42;1.50;73.30
9271;DHT22;4673;53.458;9.940;2024-02-26T00:54:07;1.50;73.40
9271;DHT22;4673;53.458;9.940;2024-02-26T00:56:33;1.50;73.40
9271;DHT22;4673;53.458;9.940;2024-02-26T00:58:59;1.40;73.20
9271;DHT22;4673;53.458;9.940;2024-02-26T01:01:24;1.40;73.30
9271;DHT22;4673;53.458;9.940;2024-02-26T01:03:50;1.30;73.40
9271;DHT22;4673;53.458;9.940;2024-02-26T01:06:16;1.30;73.40
9271;DHT22;4673;53.458;9.940;2024-02-26T01:08:42;1.30;73.50
9271;DHT22;4673;53.458;9.940;2024-02-26T01:11:08;1.30;73.50
9271;DHT22;4673;53.458;9.940;2024-02-26T01:13:34;1.30;73.60
9271;DHT22;4673;53.458;9.940;2024-02-26T01:16:00;1.30;73.60
9271;DHT22;4673;53.458;9.940;2024-02-26T01:18:26;1.20;73.50
9271;DHT22;4673;53.458;9.940;2024-02-26T01:20:52;1.10;73.50
9271;DHT22;4673;53.458;9.940;2024-02-26T01:23:20;1.10;73.50
9271;DHT22;4673;53.458;9.940;2024-02-26T01:25:45;1.10;73.60
9271;DHT22;4673;53.458;9.940;2024-02-26T01:28:11;1.10;73.80
9271;DHT22;4673;53.458;9.940;2024-02-26T01:30:37;1.10;73.80
9271;DHT22;4673;53.458;9.940;2024-02-26T01:33:02;1.10;73.80
9271;DHT22;4673;53.458;9.940;2024-02-26T01:35:29;1.10;73.80
9271;DHT22;4673;53.458;9.940;2024-02-26T01:37:55;1.10;73.90
9271;DHT22;4673;53.458;9.940;2024-02-26T01:40:26;1.10;74.00
9271;DHT22;4673;53.458;9.940;2024-02-26T01:42:52;1.00;73.90
9271;DHT22;4673;53.458;9.940;2024-02-26T01:45:18;1.00;73.90
9271;DHT22;4673;53.458;9.940;2024-02-26T01:47:51;1.00;73.90
9271;DHT22;4673;53.458;9.940;2024-02-26T01:50:18;0.90;73.90
9271;DHT22;4673;53.458;9.940;2024-02-26T01:52:45;0.90;73.90
9271;DHT22;4673;53.458;9.940;2024-02-26T01:55:13;1.00;74.00
9271;DHT22;4673;53.458;9.940;2024-02-26T01:57:43;1.00;74.10
9271;DHT22;4673;53.458;9.940;2024-02-26T02:00:09;1.00;74.20
9271;DHT22;4673;53.458;9.940;2024-02-26T02:02:35;1.00;74.20
9271;DHT22;4673;53.458;9.940;2024-02-26T02:05:01;1.00;74.20
9271;DHT22;4673;53.458;9.940;2024-02-26T02:07:28;1.00;74.30
9271;DHT22;4673;53.458;9.940;2024-02-26T02:09:54;1.00;74.30
9271;DHT22;4673;53.458;9.940;2024-02-26T02:12:20;1.00;74.30
9271;DHT22;4673;53.458;9.940;2024-02-26T02:14:46;0.90;74.30
9271;DHT22;4673;53.458;9.940;2024-02-26T02:17:12;0.90;74.40
9271;DHT22;4673;53.458;9.940;2024-02-26T02:19:38;1.00;74.50
9271;DHT22;4673;53.458;9.940;2024-02-26T02:22:04;1.00;74.50
9271;DHT22;4673;53.458;9.940;2024-02-26T02:24:29;0.90;74.40
9271;DHT22;4673;53.458;9.940;2024-02-26T02:26:55;0.90;74.40
9271;DHT22;4673;53.458;9.940;2024-02-26T02:29:21;0.90;74.50
9271;DHT22;4673;53.458;9.940;2024-02-26T02:31:47;0.90;74.50
9271;DHT22;4673;53.458;9.940;2024-02-26T02:34:13;0.90;74.60
9271;DHT22;4673;53.458;9.940;2024-02-26T02:36:52;0.80;74.50
9271;DHT22;4673;53.458;9.940;2024-02-26T02:39:18;0.90;74.60
9271;DHT22;4673;53.458;9.940;2024-02-26T02:41:44;0.90;74.70
9271;DHT22;4673;53.458;9.940;2024-02-26T02:44:10;0.90;74.60
9271;DHT22;4673;53.458;9.940;2024-02-26T02:46:35;0.80;74.60
9271;DHT22;4673;53.458;9.940;2024-02-26T02:49:01;0.80;74.50
9271;DHT22;4673;53.458;9.940;2024-02-26T02:51:27;0.70;74.50
9271;DHT22;4673;53.458;9.940;2024-02-26T02:53:52;0.60;74.50
9271;DHT22;4673;53.458;9.940;2024-02-26T02:56:18;0.70;74.60
9271;DHT22;4673;53.458;9.940;2024-02-26T02:58:44;0.60;74.40
9271;DHT22;4673;53.458;9.940;2024-02-26T03:01:10;0.60;74.50
9271;DHT22;4673;53.458;9.940;2024-02-26T03:03:36;0.60;74.50
9271;DHT22;4673;53.458;9.940;2024-02-26T03:06:03;0.60;74.50
9271;DHT22;4673;53.458;9.940;2024-02-26T03:08:28;0.60;74.60
9271;DHT22;4673;53.458;9.940;2024-02-26T03:10:54;0.50;74.60
9271;DHT22;4673;53.458;9.940;2024-02-26T03:13:20;0.60;74.60
9271;DHT22;4673;53.458;9.940;2024-02-26T03:15:45;0.50;74.60
9271;DHT22;4673;53.458;9.940;2024-02-26T03:18:11;0.50;74.70
9271;DHT22;4673;53.458;9.940;2024-02-26T03:20:37;0.60;74.80
9271;DHT22;4673;53.458;9.940;2024-02-26T03:23:03;0.60;74.80
9271;DHT22;4673;53.458;9.940;2024-02-26T03:25:28;0.60;74.80
9271;DHT22;4673;53.458;9.940;2024-02-26T03:27:54;0.60;74.90
9271;DHT22;4673;53.458;9.940;2024-02-26T03:30:20;0.60;75.00
9271;DHT22;4673;53.458;9.940;2024-02-26T03:32:45;0.60;75.00
9271;DHT22;4673;53.458;9.940;2024-02-26T03:35:12;0.60;74.90
9271;DHT22;4673;53.458;9.940;2024-02-26T03:37:38;0.50;74.90
9271;DHT22;4673;53.458;9.940;2024-02-26T03:40:04;0.40;74.70
9271;DHT22;4673;53.458;9.940;2024-02-26T03:42:30;0.50;74.90
9271;DHT22;4673;53.458;9.940;2024-02-26T03:44:56;0.50;74.90
9271;DHT22;4673;53.458;9.940;2024-02-26T03:47:21;0.50;75.00
9271;DHT22;4673;53.458;9.940;2024-02-26T03:49:47;0.50;75.00
9271;DHT22;4673;53.458;9.940;2024-02-26T03:52:13;0.50;75.00
9271;DHT22;4673;53.458;9.940;2024-02-26T03:54:38;0.60;75.10
9271;DHT22;4673;53.458;9.940;2024-02-26T03:57:04;0.60;75.20
9271;DHT22;4673;53.458;9.940;2024-02-26T03:59:30;0.70;75.40
9271;DHT22;4673;53.458;9.940;2024-02-26T04:01:55;0.80;75.40
9271;DHT22;4673;53.458;9.940;2024-02-26T04:04:21;0.70;75.40
9271;DHT22;4673;53.458;9.940;2024-02-26T04:06:47;0.70;75.30
9271;DHT22;4673;53.458;9.940;2024-02-26T04:09:14;0.70;75.40
9271;DHT22;4673;53.458;9.940;2024-02-26T04:11:40;0.70;75.40
9271;DHT22;4673;53.458;9.940;2024-02-26T04:14:05;0.70;75.40
9271;DHT22;4673;53.458;9.940;2024-02-26T04:16:37;0.70;75.40
9271;DHT22;4673;53.458;9.940;2024-02-26T04:19:02;0.70;75.40
9271;DHT22;4673;53.458;9.940;2024-02-26T04:21:28;0.60;75.20
9271;DHT22;4673;53.458;9.940;2024-02-26T04:23:53;0.60;75.20
9271;DHT22;4673;53.458;9.940;2024-02-26T04:26:22;0.60;75.20
9271;DHT22;4673;53.458;9.940;2024-02-26T04:28:47;0.60;75.20
9271;DHT22;4673;53.458;9.940;2024-02-26T04:31:13;0.60;75.30
9271;DHT22;4673;53.458;9.940;2024-02-26T04:33:38;0.60;75.40
9271;DHT22;4673;53.458;9.940;2024-02-26T04:36:04;0.70;75.40
9271;DHT22;4673;53.458;9.940;2024-02-26T04:38:30;0.70;75.50
9271;DHT22;4673;53.458;9.940;2024-02-26T04:40:56;0.70;75.50
9271;DHT22;4673;53.458;9.940;2024-02-26T04:43:21;0.60;75.30
9271;DHT22;4673;53.458;9.940;2024-02-26T04:45:47;0.60;75.30
9271;DHT22;4673;53.458;9.940;2024-02-26T04:48:13;0.50;75.20
9271;DHT22;4673;53.458;9.940;2024-02-26T04:50:39;0.50;75.30
9271;DHT22;4673;53.458;9.940;2024-02-26T04:53:04;0.60;75.40
9271;DHT22;4673;53.458;9.940;2024-02-26T04:55:30;0.60;75.40
9271;DHT22;4673;53.458;9.940;2024-02-26T04:57:56;0.60;75.40
9271;DHT22;4673;53.458;9.940;2024-02-26T05:00:21;0.50;75.30
9271;DHT22;4673;53.458;9.940;2024-02-26T05:02:47;0.50;75.20
9271;DHT22;4673;53.458;9.940;2024-02-26T05:05:13;0.50;75.30
9271;DHT22;4673;53.458;9.940;2024-02-26T05:07:42;0.50;75.20
9271;DHT22;4673;53.458;9.940;2024-02-26T05:10:09;0.50;75.20
9271;DHT22;4673;53.458;9.940;2024-02-26T05:12:34;0.50;75.20
9271;DHT22;4673;53.458;9.940;2024-02-26T05:15:02;0.40;75.00
9271;DHT22;4673;53.458;9.940;2024-02-26T05:17:28;0.40;75.00
9271;DHT22;4673;53.458;9.940;2024-02-26T05:19:53;0.50;75.40
9271;DHT22;4673;53.458;9.940;2024-02-26T05:22:19;0.60;75.40
9271;DHT22;4673;53.458;9.940;2024-02-26T05:24:45;0.60;75.40
9271;DHT22;4673;53.458;9.940;2024-02-26T05:27:10;0.60;75.30
9271;DHT22;4673;53.458;9.940;2024-02-26T05:29:37;0.50;75.30
9271;DHT22;4673;53.458;9.940;2024-02-26T05:32:04;0.60;75.40
9271;DHT22;4673;53.458;9.940;2024-02-26T05:34:30;0.60;75.40
9271;DHT22;4673;53.458;9.940;2024-02-26T05:36:55;0.60;75.40
9271;DHT22;4673;53.458;9.940;2024-02-26T05:39:21;0.60;75.40
9271;DHT22;4673;53.458;9.940;2024-02-26T05:41:47;0.70;75.50
9271;DHT22;4673;53.458;9.940;2024-02-26T05:44:13;0.70;75.40
9271;DHT22;4673;53.458;9.940;2024-02-26T05:46:38;0.70;75.50
9271;DHT22;4673;53.458;9.940;2024-02-26T05:49:04;0.70;75.50
9271;DHT22;4673;53.458;9.940;2024-02-26T05:51:30;0.80;75.60
9271;DHT22;4673;53.458;9.940;2024-02-26T05:53:55;0.80;75.60
9271;DHT22;4673;53.458;9.940;2024-02-26T05:56:24;0.90;75.70
9271;DHT22;4673;53.458;9.940;2024-02-26T05:58:50;0.80;75.60
9271;DHT22;4673;53.458;9.940;2024-02-26T06:01:16;0.80;75.70
9271;DHT22;4673;53.458;9.940;2024-02-26T06:03:43;0.90;75.70
9271;DHT22;4673;53.458;9.940;2024-02-26T06:06:10;0.90;75.80
9271;DHT22;4673;53.458;9.940;2024-02-26T06:08:35;1.00;75.80
9271;DHT22;4673;53.458;9.940;2024-02-26T06:11:07;1.00;75.80
9271;DHT22;4673;53.458;9.940;2024-02-26T06:13:34;1.00;75.80
9271;DHT22;4673;53.458;9.940;2024-02-26T06:16:00;1.00;75.80
9271;DHT22;4673;53.458;9.940;2024-02-26T06:18:25;1.10;75.90
9271;DHT22;4673;53.458;9.940;2024-02-26T06:20:51;1.10;75.90
9271;DHT22;4673;53.458;9.940;2024-02-26T06:23:17;1.10;75.90
9271;DHT22;4673;53.458;9.940;2024-02-26T06:25:42;1.20;75.90
9271;DHT22;4673;53.458;9.940;2024-02-26T06:28:08;1.20;75.90
9271;DHT22;4673;53.458;9.940;2024-02-26T06:30:34;1.30;76.10
9271;DHT22;4673;53.458;9.940;2024-02-26T06:33:02;1.30;76.20
9271;DHT22;4673;53.458;9.940;2024-02-26T06:35:28;1.40;76.30
9271;DHT22;4673;53.458;9.940;2024-02-26T06:37:54;1.50;76.40
9271;DHT22;4673;53.458;9.940;2024-02-26T06:40:20;1.60;76.40
9271;DHT22;4673;53.458;9.940;2024-02-26T06:42:45;1.60;76.40
9271;DHT22;4673;53.458;9.940;2024-02-26T06:45:11;1.70;76.50
9271;DHT22;4673;53.458;9.940;2024-02-26T06:47:37;1.60;76.40
9271;DHT22;4673;53.458;9.940;2024-02-26T06:50:03;1.70;76.50
9271;DHT22;4673;53.458;9.940;2024-02-26T06:52:29;1.70;76.50
9271;DHT22;4673;53.458;9.940;2024-02-26T06:54:54;1.90;76.80
9271;DHT22;4673;53.458;9.940;2024-02-26T06:57:20;1.90;76.80
9271;DHT22;4673;53.458;9.940;2024-02-26T06:59:46;2.00;76.70
9271;DHT22;4673;53.458;9.940;2024-02-26T07:02:15;2.10;76.90
9271;DHT22;4673;53.458;9.940;2024-02-26T07:04:42;2.20;76.90
9271;DHT22;4673;53.458;9.940;2024-02-26T07:07:08;2.20;76.80
9271;DHT22;4673;53.458;9.940;2024-02-26T07:09:34;2.20;76.90
9271;DHT22;4673;53.458;9.940;2024-02-26T07:11:59;2.30;77.00
9271;DHT22;4673;53.458;9.940;2024-02-26T07:14:25;2.30;76.90
9271;DHT22;4673;53.458;9.940;2024-02-26T07:16:51;2.30;76.90
9271;DHT22;4673;53.458;9.940;2024-02-26T07:19:16;2.40;76.90
9271;DHT22;4673;53.458;9.940;2024-02-26T07:21:42;2.50;77.00
9271;DHT22;4673;53.458;9.940;2024-02-26T07:24:08;2.60;77.10
9271;DHT22;4673;53.458;9.940;2024-02-26T07:26:34;2.60;77.00
9271;DHT22;4673;53.458;9.940;2024-02-26T07:28:59;2.70;77.20
9271;DHT22;4673;53.458;9.940;2024-02-26T07:31:25;2.80;77.20
9271;DHT22;4673;53.458;9.940;2024-02-26T07:33:51;2.80;77.00
9271;DHT22;4673;53.458;9.940;2024-02-26T07:36:17;2.80;76.90
9271;DHT22;4673;53.458;9.940;2024-02-26T07:38:42;3.00;77.10
9271;DHT22;4673;53.458;9.940;2024-02-26T07:41:08;3.10;77.30
9271;DHT22;4673;53.458;9.940;2024-02-26T07:43:34;3.20;77.30
9271;DHT22;4673;53.458;9.940;2024-02-26T07:46:00;3.50;77.50
9271;DHT22;4673;53.458;9.940;2024-02-26T07:48:26;3.40;77.40
9271;DHT22;4673;53.458;9.940;2024-02-26T07:50:51;3.50;77.50
9271;DHT22;4673;53.458;9.940;2024-02-26T07:53:17;3.70;77.60
9271;DHT22;4673;53.458;9.940;2024-02-26T07:55:43;3.80;77.40
9271;DHT22;4673;53.458;9.940;2024-02-26T07:58:08;3.60;77.10
9271;DHT22;4673;53.458;9.940;2024-02-26T08:00:34;3.60;76.90
9271;DHT22;4673;53.458;9.940;2024-02-26T08:03:00;3.80;76.90
9271;DHT22;4673;53.458;9.940;2024-02-26T08:05:26;3.80;76.80
9271;DHT22;4673;53.458;9.940;2024-02-26T08:07:51;3.80;76.40
9271;DHT22;4673;53.458;9.940;2024-02-26T08:10:17;3.70;75.80
9271;DHT22;4673;53.458;9.940;2024-02-26T08:12:43;3.60;75.40
9271;DHT22;4673;53.458;9.940;2024-02-26T08:15:10;3.80;75.30
9271;DHT22;4673;53.458;9.940;2024-02-26T08:17:36;3.70;74.70
9271;DHT22;4673;53.458;9.940;2024-02-26T08:20:02;3.60;73.90
9271;DHT22;4673;53.458;9.940;2024-02-26T08:22:28;3.70;74.10
9271;DHT22;4673;53.458;9.940;2024-02-26T08:24:54;3.90;74.50
9271;DHT22;4673;53.458;9.940;2024-02-26T08:27:19;3.80;73.70
9271;DHT22;4673;53.458;9.940;2024-02-26T08:29:45;3.90;73.50
9271;DHT22;4673;53.458;9.940;2024-02-26T08:32:11;4.00;73.40
9271;DHT22;4673;53.458;9.940;2024-02-26T08:34:37;4.00;73.30
9271;DHT22;4673;53.458;9.940;2024-02-26T08:37:03;4.00;72.50
9271;DHT22;4673;53.458;9.940;2024-02-26T08:39:28;4.10;72.70
9271;DHT22;4673;53.458;9.940;2024-02-26T08:41:54;4.20;72.60
9271;DHT22;4673;53.458;9.940;2024-02-26T08:44:20;4.20;72.40
9271;DHT22;4673;53.458;9.940;2024-02-26T08:46:45;4.40;72.60
9271;DHT22;4673;53.458;9.940;2024-02-26T08:49:11;4.60;72.50
9271;DHT22;4673;53.458;9.940;2024-02-26T08:51:42;4.70;72.40
9271;DHT22;4673;53.458;9.940;2024-02-26T08:54:08;4.90;72.30
9271;DHT22;4673;53.458;9.940;2024-02-26T08:56:33;5.00;72.30
9271;DHT22;4673;53.458;9.940;2024-02-26T08:58:59;5.10;72.00
9271;DHT22;4673;53.458;9.940;2024-02-26T09:01:32;5.20;71.40
9271;DHT22;4673;53.458;9.940;2024-02-26T09:03:58;5.00;69.80
9271;DHT22;4673;53.458;9.940;2024-02-26T09:06:24;5.00;69.50
9271;DHT22;4673;53.458;9.940;2024-02-26T09:08:50;5.00;69.40
9271;DHT22;4673;53.458;9.940;2024-02-26T09:11:16;5.00;69.20
9271;DHT22;4673;53.458;9.940;2024-02-26T09:13:41;5.20;68.80
9271;DHT22;4673;53.458;9.940;2024-02-26T09:16:07;5.20;67.80
9271;DHT22;4673;53.458;9.940;2024-02-26T09:18:33;5.20;67.00
9271;DHT22;4673;53.458;9.940;2024-02-26T09:20:59;5.10;65.10
9271;DHT22;4673;53.458;9.940;2024-02-26T09:23:24;5.10;64.90
9271;DHT22;4673;53.458;9.940;2024-02-26T09:25:50;5.20;64.30
9271;DHT22;4673;53.458;9.940;2024-02-26T09:28:16;5.10;63.40
9271;DHT22;4673;53.458;9.940;2024-02-26T09:30:45;5.10;64.10
9271;DHT22;4673;53.458;9.940;2024-02-26T09:33:13;5.10;63.70
9271;DHT22;4673;53.458;9.940;2024-02-26T09:35:38;5.10;62.10
9271;DHT22;4673;53.458;9.940;2024-02-26T09:38:04;5.10;61.40
9271;DHT22;4673;53.458;9.940;2024-02-26T09:40:30;5.10;62.20
9271;DHT22;4673;53.458;9.940;2024-02-26T09:42:59;5.10;62.30
9271;DHT22;4673;53.458;9.940;2024-02-26T09:45:26;5.30;62.90
9271;DHT22;4673;53.458;9.940;2024-02-26T09:47:55;5.50;63.40
9271;DHT22;4673;53.458;9.940;2024-02-26T09:50:21;5.60;62.60
9271;DHT22;4673;53.458;9.940;2024-02-26T09:52:49;5.60;62.20
9271;DHT22;4673;53.458;9.940;2024-02-26T09:55:15;5.70;61.00
9271;DHT22;4673;53.458;9.940;2024-02-26T09:57:45;5.70;60.00
9271;DHT22;4673;53.458;9.940;2024-02-26T10:00:17;5.70;60.30
9271;DHT22;4673;53.458;9.940;2024-02-26T10:02:46;5.70;59.30
9271;DHT22;4673;53.458;9.940;2024-02-26T10:05:16;5.80;59.30
9271;DHT22;4673;53.458;9.940;2024-02-26T10:07:42;5.90;60.00
9271;DHT22;4673;53.458;9.940;2024-02-26T10:10:09;6.20;60.20
9271;DHT22;4673;53.458;9.940;2024-02-26T10:12:35;6.20;58.00
9271;DHT22;4673;53.458;9.940;2024-02-26T10:15:01;5.90;53.80
9271;DHT22;4673;53.458;9.940;2024-02-26T10:17:26;6.00;56.70
9271;DHT22;4673;53.458;9.940;2024-02-26T10:19:52;6.20;56.40
9271;DHT22;4673;53.458;9.940;2024-02-26T10:22:22;6.40;56.40
9271;DHT22;4673;53.458;9.940;2024-02-26T10:24:48;6.70;56.40
9271;DHT22;4673;53.458;9.940;2024-02-26T10:27:14;6.80;54.10
9271;DHT22;4673;53.458;9.940;2024-02-26T10:29:40;6.60;53.30
9271;DHT22;4673;53.458;9.940;2024-02-26T10:32:09;6.40;52.10
9271;DHT22;4673;53.458;9.940;2024-02-26T10:34:35;6.60;53.50
9271;DHT22;4673;53.458;9.940;2024-02-26T10:37:04;6.60;52.70
9271;DHT22;4673;53.458;9.940;2024-02-26T10:39:30;6.80;52.80
9271;DHT22;4673;53.458;9.940;2024-02-26T10:41:55;6.80;51.60
9271;DHT22;4673;53.458;9.940;2024-02-26T10:44:21;6.80;51.70
9271;DHT22;4673;53.458;9.940;2024-02-26T10:46:47;6.90;50.60
9271;DHT22;4673;53.458;9.940;2024-02-26T10:49:15;6.90;49.90
9271;DHT22;4673;53.458;9.940;2024-02-26T10:51:48;7.00;50.60
9271;DHT22;4673;53.458;9.940;2024-02-26T10:54:16;7.10;49.60
9271;DHT22;4673;53.458;9.940;2024-02-26T10:56:42;7.10;47.90
9271;DHT22;4673;53.458;9.940;2024-02-26T10:59:10;7.00;47.30
9271;DHT22;4673;53.458;9.940;2024-02-26T11:01:36;6.70;47.30
9271;DHT22;4673;53.458;9.940;2024-02-26T11:04:06;6.60;47.50
9271;DHT22;4673;53.458;9.940;2024-02-26T11:06:33;6.50;48.50
9271;DHT22;4673;53.458;9.940;2024-02-26T11:09:01;6.60;49.30
9271;DHT22;4673;53.458;9.940;2024-02-26T11:11:28;6.80;49.90
9271;DHT22;4673;53.458;9.940;2024-02-26T11:13:56;6.90;48.70
9271;DHT22;4673;53.458;9.940;2024-02-26T11:16:22;7.00;49.20
9271;DHT22;4673;53.458;9.940;2024-02-26T11:18:49;6.80;46.90
9271;DHT22;4673;53.458;9.940;2024-02-26T11:21:19;6.70;47.90
9271;DHT22;4673;53.458;9.940;2024-02-26T11:23:47;6.80;47.60
9271;DHT22;4673;53.458;9.940;2024-02-26T11:26:15;6.70;47.80
9271;DHT22;4673;53.458;9.940;2024-02-26T11:28:42;6.60;48.10
9271;DHT22;4673;53.458;9.940;2024-02-26T11:31:09;6.70;48.80
9271;DHT22;4673;53.458;9.940;2024-02-26T11:33:35;6.70;48.30
9271;DHT22;4673;53.458;9.940;2024-02-26T11:36:02;6.80;49.30
9271;DHT22;4673;53.458;9.940;2024-02-26T11:38:33;6.80;49.10
9271;DHT22;4673;53.458;9.940;2024-02-26T11:40:59;6.90;48.80
9271;DHT22;4673;53.458;9.940;2024-02-26T11:46:45;6.80;48.50
9271;DHT22;4673;53.458;9.940;2024-02-26T11:49:30;6.80;48.60
9271;DHT22;4673;53.458;9.940;2024-02-26T11:51:56;6.90;47.90
9271;DHT22;4673;53.458;9.940;2024-02-26T11:54:52;6.70;47.90
9271;DHT22;4673;53.458;9.940;2024-02-26T12:02:45;6.90;47.70
9271;DHT22;4673;53.458;9.940;2024-02-26T12:05:17;7.00;48.50
9271;DHT22;4673;53.458;9.940;2024-02-26T12:07:55;7.10;46.20
9271;DHT22;4673;53.458;9.940;2024-02-26T12:10:31;7.10;46.90
9271;DHT22;4673;53.458;9.940;2024-02-26T12:15:37;7.40;46.60
9271;DHT22;4673;53.458;9.940;2024-02-26T12:18:05;7.30;45.40
9271;DHT22;4673;53.458;9.940;2024-02-26T12:20:31;7.40;47.00
9271;DHT22;4673;53.458;9.940;2024-02-26T12:22:57;7.50;45.70
9271;DHT22;4673;53.458;9.940;2024-02-26T12:25:28;7.70;45.10
9271;DHT22;4673;53.458;9.940;2024-02-26T12:27:55;7.70;45.20
9271;DHT22;4673;53.458;9.940;2024-02-26T12:30:21;7.80;42.80
9271;DHT22;4673;53.458;9.940;2024-02-26T12:32:48;7.80;42.70
9271;DHT22;4673;53.458;9.940;2024-02-26T12:35:15;7.90;43.40
9271;DHT22;4673;53.458;9.940;2024-02-26T12:37:42;8.10;43.50
9271;DHT22;4673;53.458;9.940;2024-02-26T12:40:09;8.30;41.70
9271;DHT22;4673;53.458;9.940;2024-02-26T12:42:39;8.00;40.00
9271;DHT22;4673;53.458;9.940;2024-02-26T12:45:06;7.90;39.70
9271;DHT22;4673;53.458;9.940;2024-02-26T12:47:40;7.70;40.40
9271;DHT22;4673;53.458;9.940;2024-02-26T12:50:07;7.80;42.10
9271;DHT22;4673;53.458;9.940;2024-02-26T12:52:35;7.90;41.90
9271;DHT22;4673;53.458;9.940;2024-02-26T12:55:04;8.20;41.00
9271;DHT22;4673;53.458;9.940;2024-02-26T12:57:32;8.00;38.60
9271;DHT22;4673;53.458;9.940;2024-02-26T12:59:59;8.00;39.10
9271;DHT22;4673;53.458;9.940;2024-02-26T13:02:25;8.00;38.90
9271;DHT22;4673;53.458;9.940;2024-02-26T13:04:52;8.00;39.00
9271;DHT22;4673;53.458;9.940;2024-02-26T13:07:18;7.90;39.60
9271;DHT22;4673;53.458;9.940;2024-02-26T13:09:45;7.90;39.90
9271;DHT22;4673;53.458;9.940;2024-02-26T13:12:12;7.90;39.90
9271;DHT22;4673;53.458;9.940;2024-02-26T13:14:39;8.10;40.60
9271;DHT22;4673;53.458;9.940;2024-02-26T13:17:05;8.30;39.40
9271;DHT22;4673;53.458;9.940;2024-02-26T13:19:30;8.40;39.20
9271;DHT22;4673;53.458;9.940;2024-02-26T13:22:03;8.60;39.10
9271;DHT22;4673;53.458;9.940;2024-02-26T13:24:29;8.80;38.80
9271;DHT22;4673;53.458;9.940;2024-02-26T13:26:56;8.80;37.70
9271;DHT22;4673;53.458;9.940;2024-02-26T13:29:22;8.80;36.80
9271;DHT22;4673;53.458;9.940;2024-02-26T13:32:00;8.60;35.70
9271;DHT22;4673;53.458;9.940;2024-02-26T13:34:26;8.50;36.70
9271;DHT22;4673;53.458;9.940;2024-02-26T13:36:53;8.20;37.70
9271;DHT22;4673;53.458;9.940;2024-02-26T13:39:26;8.10;38.90
9271;DHT22;4673;53.458;9.940;2024-02-26T13:41:53;7.90;39.30
9271;DHT22;4673;53.458;9.940;2024-02-26T13:44:22;7.70;40.30
9271;DHT22;4673;53.458;9.940;2024-02-26T13:46:48;7.60;41.20
9271;DHT22;4673;53.458;9.940;2024-02-26T13:49:16;7.40;41.90
9271;DHT22;4673;53.458;9.940;2024-02-26T13:51:41;7.30;42.30
9271;DHT22;4673;53.458;9.940;2024-02-26T13:54:07;7.30;42.80
9271;DHT22;4673;53.458;9.940;2024-02-26T13:56:34;7.30;42.90
9271;DHT22;4673;53.458;9.940;2024-02-26T13:59:00;7.20;43.00
9271;DHT22;4673;53.458;9.940;2024-02-26T14:01:26;7.30;43.10
9271;DHT22;4673;53.458;9.940;2024-02-26T14:03:51;7.20;42.90
9271;DHT22;4673;53.458;9.940;2024-02-26T14:06:20;7.30;42.20
9271;DHT22;4673;53.458;9.940;2024-02-26T14:08:46;7.00;42.50
9271;DHT22;4673;53.458;9.940;2024-02-26T14:11:11;6.80;43.30
9271;DHT22;4673;53.458;9.940;2024-02-26T14:13:37;6.90;43.70
9271;DHT22;4673;53.458;9.940;2024-02-26T14:16:03;6.80;43.70
9271;DHT22;4673;53.458;9.940;2024-02-26T14:18:29;7.00;44.70
9271;DHT22;4673;53.458;9.940;2024-02-26T14:20:54;7.10;44.40
9271;DHT22;4673;53.458;9.940;2024-02-26T14:23:20;7.20;43.50
9271;DHT22;4673;53.458;9.940;2024-02-26T14:25:45;7.10;42.90
9271;DHT22;4673;53.458;9.940;2024-02-26T14:28:11;7.10;42.10
9271;DHT22;4673;53.458;9.940;2024-02-26T14:30:37;6.90;42.30
9271;DHT22;4673;53.458;9.940;2024-02-26T14:33:02;7.00;42.90
9271;DHT22;4673;53.458;9.940;2024-02-26T14:35:28;6.90;43.20
9271;DHT22;4673;53.458;9.940;2024-02-26T14:37:54;7.00;43.70
9271;DHT22;4673;53.458;9.940;2024-02-26T14:40:20;7.00;43.60
9271;DHT22;4673;53.458;9.940;2024-02-26T14:42:46;7.00;43.50
9271;DHT22;4673;53.458;9.940;2024-02-26T14:45:12;6.90;43.30
9271;DHT22;4673;53.458;9.940;2024-02-26T14:47:38;7.00;44.10
9271;DHT22;4673;53.458;9.940;2024-02-26T14:50:04;7.00;43.80
9271;DHT22;4673;53.458;9.940;2024-02-26T14:52:30;7.00;43.70
9271;DHT22;4673;53.458;9.940;2024-02-26T14:54:56;7.00;43.80
9271;DHT22;4673;53.458;9.940;2024-02-26T14:57:23;6.80;43.80
9271;DHT22;4673;53.458;9.940;2024-02-26T14:59:49;6.80;44.80
9271;DHT22;4673;53.458;9.940;2024-02-26T15:02:16;6.80;44.90
9271;DHT22;4673;53.458;9.940;2024-02-26T15:04:45;6.90;45.00
9271;DHT22;4673;53.458;9.940;2024-02-26T15:07:12;6.90;44.90
9271;DHT22;4673;53.458;9.940;2024-02-26T15:09:37;7.00;44.70
9271;DHT22;4673;53.458;9.940;2024-02-26T15:12:05;6.90;44.60
9271;DHT22;4673;53.458;9.940;2024-02-26T15:14:34;6.90;45.00
9271;DHT22;4673;53.458;9.940;2024-02-26T15:17:00;6.80;44.90
9271;DHT22;4673;53.458;9.940;2024-02-26T15:19:26;6.80;45.30
9271;DHT22;4673;53.458;9.940;2024-02-26T15:21:52;6.80;45.50
9271;DHT22;4673;53.458;9.940;2024-02-26T15:24:17;6.80;45.80
9271;DHT22;4673;53.458;9.940;2024-02-26T15:26:44;6.80;45.60
9271;DHT22;4673;53.458;9.940;2024-02-26T15:29:10;6.60;46.20
9271;DHT22;4673;53.458;9.940;2024-02-26T15:31:36;6.60;46.60
9271;DHT22;4673;53.458;9.940;2024-02-26T15:34:02;6.60;46.60
9271;DHT22;4673;53.458;9.940;2024-02-26T15:36:29;6.60;47.10
9271;DHT22;4673;53.458;9.940;2024-02-26T15:38:54;6.70;47.30
9271;DHT22;4673;53.458;9.940;2024-02-26T15:41:20;6.70;47.60
9271;DHT22;4673;53.458;9.940;2024-02-26T15:43:46;6.60;47.10
9271;DHT22;4673;53.458;9.940;2024-02-26T15:46:11;6.60;47.40
9271;DHT22;4673;53.458;9.940;2024-02-26T15:48:37;6.40;47.80
9271;DHT22;4673;53.458;9.940;2024-02-26T15:51:03;6.40;47.70
9271;DHT22;4673;53.458;9.940;2024-02-26T15:53:29;6.40;47.90
9271;DHT22;4673;53.458;9.940;2024-02-26T15:55:55;6.40;47.70
9271;DHT22;4673;53.458;9.940;2024-02-26T15:58:21;6.40;48.00
9271;DHT22;4673;53.458;9.940;2024-02-26T16:00:46;6.50;47.90
9271;DHT22;4673;53.458;9.940;2024-02-26T16:03:13;6.50;48.10
9271;DHT22;4673;53.458;9.940;2024-02-26T16:05:39;6.40;47.50
9271;DHT22;4673;53.458;9.940;2024-02-26T16:08:17;6.40;48.10
9271;DHT22;4673;53.458;9.940;2024-02-26T16:10:46;6.30;48.10
9271;DHT22;4673;53.458;9.940;2024-02-26T16:13:12;6.40;48.30
9271;DHT22;4673;53.458;9.940;2024-02-26T16:15:41;6.30;48.10
9271;DHT22;4673;53.458;9.940;2024-02-26T16:18:08;6.30;48.40
9271;DHT22;4673;53.458;9.940;2024-02-26T16:20:33;6.20;48.10
9271;DHT22;4673;53.458;9.940;2024-02-26T16:23:00;6.10;48.80